createdAt,value
2018-06-18T00:00:45.414Z,77.97
2018-06-18T00:01:45.341Z,77.97
2018-06-18T00:02:45.252Z,77.97
2018-06-18T00:03:45.177Z,78.17
2018-06-18T00:04:45.101Z,78.45
2018-06-18T00:05:45.027Z,78.64
2018-06-18T00:06:44.938Z,78.64
2018-06-18T00:07:44.863Z,78.93
2018-06-18T00:08:44.788Z,78.93
2018-06-18T00:09:44.708Z,78.84
2018-06-18T00:10:44.627Z,78.93
2018-06-18T00:11:44.552Z,78.84
2018-06-18T00:12:44.463Z,79.13
2018-06-18T00:13:44.389Z,78.84
2018-06-18T00:14:44.313Z,79.13
2018-06-18T00:15:44.235Z,79.03
2018-06-18T00:16:44.152Z,78.80
2018-06-18T00:17:44.077Z,79.03
2018-06-18T00:18:43.994Z,79.37
2018-06-18T00:19:43.914Z,79.37
2018-06-18T00:20:43.839Z,79.47
2018-06-18T00:21:43.753Z,79.66
2018-06-18T00:22:43.677Z,79.37
2018-06-18T00:23:43.604Z,79.28
2018-06-18T00:24:43.515Z,80.08
2018-06-18T00:25:43.456Z,80.14
2018-06-18T00:26:43.365Z,80.33
2018-06-18T00:27:43.279Z,80.43
2018-06-18T00:28:43.207Z,80.33
2018-06-18T00:29:43.134Z,80.14
2018-06-18T00:30:43.041Z,80.43
2018-06-18T00:31:42.966Z,80.90
2018-06-18T00:32:42.904Z,80.90
2018-06-18T00:33:42.804Z,80.90
2018-06-18T00:34:42.731Z,80.90
2018-06-18T00:35:42.655Z,81.20
2018-06-18T00:36:42.566Z,81.00
2018-06-18T00:37:42.492Z,80.71
2018-06-18T00:38:42.417Z,80.90
2018-06-18T00:39:42.331Z,80.90
2018-06-18T00:40:42.255Z,80.90
2018-06-18T00:41:42.168Z,81.00
2018-06-18T00:42:42.094Z,81.38
2018-06-18T00:43:42.018Z,81.38
2018-06-18T00:44:41.930Z,81.48
2018-06-18T00:45:41.856Z,81.86
2018-06-18T00:46:41.780Z,82.06
2018-06-18T00:47:41.694Z,82.06
2018-06-18T00:48:41.618Z,82.24
2018-06-18T00:49:41.543Z,82.30
2018-06-18T00:50:41.456Z,82.43
2018-06-18T00:51:41.381Z,82.49
2018-06-18T00:52:41.307Z,82.11
2018-06-18T00:53:41.219Z,82.20
2018-06-18T00:54:41.143Z,82.11
2018-06-18T00:55:41.068Z,82.59
2018-06-18T00:56:40.982Z,82.40
2018-06-18T00:57:40.955Z,82.97
2018-06-18T00:58:40.832Z,82.97
2018-06-18T00:59:40.744Z,82.87
2018-06-18T01:00:40.669Z,83.45
2018-06-18T01:01:40.582Z,83.45
2018-06-18T01:02:40.508Z,83.16
2018-06-18T01:03:40.433Z,83.45
2018-06-18T01:04:40.344Z,83.45
2018-06-18T01:05:40.271Z,83.16
2018-06-18T01:06:40.194Z,83.16
2018-06-18T01:07:40.108Z,83.26
2018-06-18T01:08:40.034Z,83.06
2018-06-18T01:09:39.945Z,83.06
2018-06-18T01:10:39.870Z,83.16
2018-06-18T01:11:39.796Z,82.97
2018-06-18T01:12:39.710Z,83.06
2018-06-18T01:13:39.634Z,83.16
2018-06-18T01:14:39.547Z,83.64
2018-06-18T01:15:39.472Z,82.97
2018-06-18T01:16:39.396Z,83.16
2018-06-18T01:17:39.313Z,83.16
2018-06-18T01:18:39.234Z,82.97
2018-06-18T01:19:39.159Z,83.16
2018-06-18T01:20:39.071Z,83.26
2018-06-18T01:21:38.997Z,83.06
2018-06-18T01:22:38.934Z,83.36
2018-06-18T01:23:38.835Z,83.36
2018-06-18T01:24:38.760Z,83.26
2018-06-18T01:25:38.671Z,83.26
2018-06-18T01:26:38.597Z,83.16
2018-06-18T01:27:38.537Z,83.45
2018-06-18T01:28:38.435Z,83.36
2018-06-18T01:29:38.360Z,83.36
2018-06-18T01:30:38.274Z,83.16
2018-06-18T01:31:38.197Z,83.36
2018-06-18T01:32:38.127Z,83.12
2018-06-18T01:33:38.036Z,82.87
2018-06-18T01:34:37.961Z,83.22
2018-06-18T01:35:37.886Z,83.26
2018-06-18T01:36:37.798Z,83.31
2018-06-18T01:37:37.723Z,83.06
2018-06-18T01:38:37.636Z,83.16
2018-06-18T01:39:37.561Z,83.12
2018-06-18T01:40:37.487Z,83.69
2018-06-18T01:41:37.398Z,83.03
2018-06-18T01:42:37.323Z,83.06
2018-06-18T01:43:37.249Z,83.79
2018-06-18T01:44:37.161Z,83.60
2018-06-18T01:45:37.086Z,83.16
2018-06-18T01:46:37.004Z,83.69
2018-06-18T01:47:36.924Z,83.50
2018-06-18T01:48:36.849Z,83.50
2018-06-18T01:49:36.784Z,83.69
2018-06-18T01:50:36.687Z,83.40
2018-06-18T01:51:36.612Z,83.69
2018-06-18T01:52:36.524Z,83.50
2018-06-18T01:53:36.449Z,83.50
2018-06-18T01:54:36.363Z,83.50
2018-06-18T01:55:36.289Z,83.69
2018-06-18T01:56:36.213Z,83.50
2018-06-18T01:57:36.125Z,83.12
2018-06-18T01:58:36.051Z,83.31
2018-06-18T01:59:35.964Z,83.50
2018-06-18T02:00:35.890Z,83.50
2018-06-18T02:01:35.814Z,83.40
2018-06-18T02:02:35.726Z,83.60
2018-06-18T02:03:35.654Z,83.89
2018-06-18T02:04:35.576Z,83.22
2018-06-18T02:05:35.490Z,83.89
2018-06-18T02:06:35.415Z,83.60
2018-06-18T02:07:35.327Z,83.60
2018-06-18T02:08:35.252Z,83.60
2018-06-18T02:09:35.177Z,83.79
2018-06-18T02:10:35.090Z,83.89
2018-06-18T02:11:35.015Z,83.50
2018-06-18T02:12:34.928Z,83.89
2018-06-18T02:13:34.852Z,83.79
2018-06-18T02:14:34.777Z,83.60
2018-06-18T02:15:34.691Z,84.17
2018-06-18T02:16:34.616Z,84.08
2018-06-18T02:17:34.561Z,83.79
2018-06-18T02:18:34.453Z,83.79
2018-06-18T02:19:34.378Z,83.50
2018-06-18T02:20:34.291Z,83.50
2018-06-18T02:21:34.216Z,83.60
2018-06-18T02:22:34.145Z,83.50
2018-06-18T02:23:34.053Z,84.36
2018-06-18T02:24:33.978Z,84.27
2018-06-18T02:25:33.891Z,84.27
2018-06-18T02:26:33.817Z,84.08
2018-06-18T02:27:33.745Z,84.03
2018-06-18T02:28:33.653Z,84.17
2018-06-18T02:29:33.579Z,84.27
2018-06-18T02:30:33.493Z,83.94
2018-06-18T02:31:33.417Z,83.65
2018-06-18T02:32:33.345Z,84.23
2018-06-18T02:33:33.255Z,84.99
2018-06-18T02:34:33.180Z,84.75
2018-06-18T02:35:33.104Z,84.55
2018-06-18T02:36:33.019Z,84.80
2018-06-18T02:37:32.945Z,84.84
2018-06-18T02:38:32.855Z,84.84
2018-06-18T02:39:32.780Z,84.61
2018-06-18T02:40:32.693Z,84.61
2018-06-18T02:41:32.624Z,84.75
2018-06-18T02:42:32.544Z,84.61
2018-06-18T02:43:32.455Z,84.61
2018-06-18T02:44:32.382Z,84.61
2018-06-18T02:45:32.295Z,84.80
2018-06-18T02:46:32.219Z,84.61
2018-06-18T02:47:32.145Z,84.52
2018-06-18T02:48:32.059Z,84.55
2018-06-18T02:49:31.981Z,84.70
2018-06-18T02:50:31.894Z,84.65
2018-06-18T02:51:31.820Z,84.94
2018-06-18T02:52:31.744Z,84.75
2018-06-18T02:53:31.656Z,84.84
2018-06-18T02:54:31.582Z,85.22
2018-06-18T02:55:31.495Z,84.94
2018-06-18T02:56:31.426Z,84.55
2018-06-18T02:57:31.346Z,85.03
2018-06-18T02:58:31.269Z,84.94
2018-06-18T02:59:31.196Z,84.65
2018-06-18T03:00:31.096Z,84.94
2018-06-18T03:01:31.024Z,84.75
2018-06-18T03:02:30.950Z,84.65
2018-06-18T03:03:30.860Z,84.75
2018-06-18T03:04:30.792Z,84.75
2018-06-18T03:05:30.696Z,84.65
2018-06-18T03:06:30.621Z,84.65
2018-06-18T03:07:30.547Z,84.75
2018-06-18T03:08:30.459Z,84.55
2018-06-18T03:09:30.383Z,84.46
2018-06-18T03:10:30.297Z,84.65
2018-06-18T03:11:30.221Z,83.98
2018-06-18T03:12:30.135Z,84.08
2018-06-18T03:13:30.059Z,83.54
2018-06-18T03:14:29.984Z,83.54
2018-06-18T03:15:29.904Z,83.73
2018-06-18T03:16:29.823Z,83.83
2018-06-18T03:17:29.748Z,83.93
2018-06-18T03:18:29.659Z,83.83
2018-06-18T03:19:29.584Z,83.54
2018-06-18T03:20:29.501Z,83.73
2018-06-18T03:21:29.422Z,83.06
2018-06-18T03:22:29.348Z,83.06
2018-06-18T03:23:29.260Z,83.45
2018-06-18T03:24:29.185Z,83.36
2018-06-18T03:25:29.098Z,83.68
2018-06-18T03:26:29.024Z,83.26
2018-06-18T03:27:28.949Z,83.59
2018-06-18T03:28:28.862Z,82.97
2018-06-18T03:29:28.785Z,83.26
2018-06-18T03:30:28.723Z,83.73
2018-06-18T03:31:28.624Z,83.87
2018-06-18T03:32:28.549Z,83.73
2018-06-18T03:33:28.461Z,83.36
2018-06-18T03:34:28.385Z,83.45
2018-06-18T03:35:28.323Z,83.54
2018-06-18T03:36:28.224Z,83.83
2018-06-18T03:37:28.150Z,83.36
2018-06-18T03:38:28.063Z,83.39
2018-06-18T03:39:27.986Z,83.54
2018-06-18T03:40:27.924Z,83.36
2018-06-18T03:41:27.825Z,83.16
2018-06-18T03:42:27.749Z,83.45
2018-06-18T03:43:27.676Z,83.59
2018-06-18T03:44:27.587Z,83.06
2018-06-18T03:45:27.524Z,83.73
2018-06-18T03:46:27.425Z,83.93
2018-06-18T03:47:27.350Z,83.73
2018-06-18T03:48:27.276Z,84.31
2018-06-18T03:49:27.186Z,84.12
2018-06-18T03:50:27.113Z,83.83
2018-06-18T03:51:27.037Z,83.83
2018-06-18T03:52:26.951Z,83.93
2018-06-18T03:53:26.876Z,83.73
2018-06-18T03:54:26.788Z,83.54
2018-06-18T03:55:26.714Z,84.50
2018-06-18T03:56:26.639Z,83.36
2018-06-18T03:57:26.551Z,83.54
2018-06-18T03:58:26.476Z,83.83
2018-06-18T03:59:26.390Z,83.36
2018-06-18T04:00:26.314Z,83.45
2018-06-18T04:01:26.238Z,84.31
2018-06-18T04:02:26.152Z,83.83
2018-06-18T04:03:26.081Z,84.31
2018-06-18T04:04:26.002Z,84.02
2018-06-18T04:05:25.937Z,84.02
2018-06-18T04:06:25.839Z,84.31
2018-06-18T04:07:25.764Z,83.59
2018-06-18T04:08:25.681Z,83.78
2018-06-18T04:09:25.602Z,84.45
2018-06-18T04:10:25.516Z,84.45
2018-06-18T04:11:25.440Z,84.45
2018-06-18T04:12:25.365Z,83.39
2018-06-18T04:13:25.278Z,83.20
2018-06-18T04:14:25.204Z,83.39
2018-06-18T04:15:25.132Z,83.97
2018-06-18T04:16:25.040Z,83.97
2018-06-18T04:17:24.965Z,83.49
2018-06-18T04:18:24.893Z,83.44
2018-06-18T04:19:24.850Z,82.92
2018-06-18T04:20:24.729Z,83.44
2018-06-18T04:21:24.642Z,83.25
2018-06-18T04:22:24.567Z,83.34
2018-06-18T04:23:24.491Z,82.67
2018-06-18T04:24:24.404Z,82.29
2018-06-18T04:25:24.330Z,82.09
2018-06-18T04:26:24.255Z,82.19
2018-06-18T04:27:24.167Z,81.90
2018-06-18T04:28:24.106Z,81.95
2018-06-18T04:29:24.019Z,81.95
2018-06-18T04:30:23.933Z,81.18
2018-06-18T04:31:23.855Z,80.99
2018-06-18T04:32:23.780Z,80.83
2018-06-18T04:33:23.697Z,80.64
2018-06-18T04:34:23.618Z,80.11
2018-06-18T04:35:23.544Z,79.91
2018-06-18T04:36:23.456Z,79.09
2018-06-18T04:37:23.380Z,78.17
2018-06-18T04:38:23.306Z,77.34
2018-06-18T04:39:23.218Z,76.32
2018-06-18T04:40:23.143Z,75.07
2018-06-18T04:41:23.068Z,73.86
2018-06-18T04:42:22.993Z,74.25
2018-06-18T04:43:22.906Z,71.78
2018-06-18T04:44:22.832Z,71.20
2018-06-18T04:45:22.757Z,72.07
2018-06-18T04:46:22.670Z,73.57
2018-06-18T04:47:22.593Z,74.88
2018-06-18T04:48:22.520Z,75.94
2018-06-18T04:49:22.444Z,76.04
2018-06-18T04:50:22.369Z,75.84
2018-06-18T04:51:22.283Z,76.04
2018-06-18T04:52:22.207Z,76.52
2018-06-18T04:53:22.132Z,76.52
2018-06-18T04:54:22.057Z,76.61
2018-06-18T04:55:21.983Z,77.38
2018-06-18T04:56:21.909Z,77.29
2018-06-18T04:57:21.825Z,77.63
2018-06-18T04:58:21.744Z,77.44
2018-06-18T04:59:21.684Z,77.83
2018-06-18T05:00:21.596Z,78.30
2018-06-18T05:01:21.520Z,78.11
2018-06-18T05:02:21.445Z,78.21
2018-06-18T05:03:21.359Z,79.07
2018-06-18T05:04:21.284Z,78.98
2018-06-18T05:05:21.213Z,78.59
2018-06-18T05:06:21.134Z,78.11
2018-06-18T05:07:21.059Z,78.45
2018-06-18T05:08:20.984Z,78.02
2018-06-18T05:09:20.897Z,78.45
2018-06-18T05:10:20.821Z,78.50
2018-06-18T05:11:20.747Z,78.94
2018-06-18T05:12:20.672Z,78.98
2018-06-18T05:13:20.597Z,79.55
2018-06-18T05:14:20.522Z,78.98
2018-06-18T05:15:20.436Z,78.65
2018-06-18T05:16:20.371Z,78.27
2018-06-18T05:17:20.285Z,78.50
2018-06-18T05:18:20.210Z,78.50
2018-06-18T05:19:20.136Z,78.94
2018-06-18T05:20:20.090Z,78.65
2018-06-18T05:21:19.973Z,78.59
2018-06-18T05:22:19.911Z,79.03
2018-06-18T05:23:19.822Z,78.65
2018-06-18T05:24:19.750Z,79.22
2018-06-18T05:25:19.673Z,79.03
2018-06-18T05:26:19.655Z,78.84
2018-06-18T05:27:19.512Z,79.61
2018-06-18T05:28:19.437Z,79.42
2018-06-18T05:29:19.363Z,79.22
2018-06-18T05:30:19.287Z,79.42
2018-06-18T05:31:19.212Z,79.13
2018-06-18T05:32:19.126Z,79.22
2018-06-18T05:33:19.049Z,79.32
2018-06-18T05:34:18.974Z,79.42
2018-06-18T05:35:18.933Z,79.13
2018-06-18T05:36:18.824Z,79.32
2018-06-18T05:37:18.749Z,79.13
2018-06-18T05:38:18.663Z,79.52
2018-06-18T05:39:18.591Z,79.71
2018-06-18T05:40:18.513Z,79.80
2018-06-18T05:41:18.437Z,79.42
2018-06-18T05:42:18.363Z,79.61
2018-06-18T05:43:18.277Z,79.03
2018-06-18T05:44:18.213Z,79.71
2018-06-18T05:45:18.125Z,79.03
2018-06-18T05:46:18.050Z,79.80
2018-06-18T05:47:17.975Z,79.03
2018-06-18T05:48:17.894Z,79.52
2018-06-18T05:49:17.814Z,79.13
2018-06-18T05:50:17.814Z,79.90
2018-06-18T05:51:17.665Z,79.22
2018-06-18T05:52:17.589Z,79.80
2018-06-18T05:53:17.515Z,79.42
2018-06-18T05:54:17.426Z,79.67
2018-06-18T05:55:17.351Z,79.71
2018-06-18T05:56:17.276Z,79.71
2018-06-18T05:57:17.214Z,79.80
2018-06-18T05:58:17.126Z,79.80
2018-06-18T05:59:17.039Z,80.28
2018-06-18T06:00:16.965Z,80.09
2018-06-18T06:01:16.890Z,79.52
2018-06-18T06:02:16.815Z,79.42
2018-06-18T06:03:16.729Z,79.52
2018-06-18T06:04:16.655Z,79.13
2018-06-18T06:05:16.578Z,78.94
2018-06-18T06:06:16.516Z,78.75
2018-06-18T06:07:16.431Z,78.94
2018-06-18T06:08:16.340Z,79.22
2018-06-18T06:09:16.266Z,78.55
2018-06-18T06:10:16.191Z,78.55
2018-06-18T06:11:16.117Z,79.22
2018-06-18T06:12:16.044Z,79.03
2018-06-18T06:13:15.956Z,79.03
2018-06-18T06:14:15.879Z,79.32
2018-06-18T06:15:15.803Z,79.03
2018-06-18T06:16:15.729Z,78.94
2018-06-18T06:17:15.654Z,79.22
2018-06-18T06:18:15.579Z,79.27
2018-06-18T06:19:15.492Z,79.17
2018-06-18T06:20:15.417Z,79.07
2018-06-18T06:21:15.344Z,78.98
2018-06-18T06:22:15.273Z,79.17
2018-06-18T06:23:15.193Z,79.27
2018-06-18T06:24:15.104Z,78.88
2018-06-18T06:25:15.030Z,79.27
2018-06-18T06:26:14.954Z,78.53
2018-06-18T06:27:14.881Z,78.44
2018-06-18T06:28:14.805Z,78.34
2018-06-18T06:29:14.730Z,78.73
2018-06-18T06:30:14.644Z,78.63
2018-06-18T06:31:14.568Z,78.15
2018-06-18T06:32:14.502Z,78.25
2018-06-18T06:33:14.419Z,78.25
2018-06-18T06:34:14.386Z,78.15
2018-06-18T06:35:14.270Z,77.96
2018-06-18T06:36:14.181Z,78.34
2018-06-18T06:37:14.106Z,78.34
2018-06-18T06:38:14.031Z,78.53
2018-06-18T06:39:13.956Z,78.53
2018-06-18T06:40:13.881Z,78.44
2018-06-18T06:41:13.806Z,78.48
2018-06-18T06:42:13.720Z,78.19
2018-06-18T06:43:13.644Z,77.33
2018-06-18T06:44:13.569Z,77.51
2018-06-18T06:45:13.511Z,77.61
2018-06-18T06:46:13.420Z,77.04
2018-06-18T06:47:13.345Z,76.94
2018-06-18T06:48:13.270Z,76.65
2018-06-18T06:49:13.195Z,77.51
2018-06-18T06:50:13.109Z,76.75
2018-06-18T06:51:13.036Z,76.65
2018-06-18T06:52:12.957Z,76.65
2018-06-18T06:53:12.884Z,76.36
2018-06-18T06:54:12.808Z,76.36
2018-06-18T06:55:12.733Z,76.21
2018-06-18T06:56:12.658Z,76.17
2018-06-18T06:57:12.596Z,76.78
2018-06-18T06:58:12.508Z,75.63
2018-06-18T06:59:12.433Z,74.96
2018-06-18T07:00:12.358Z,74.38
2018-06-18T07:01:12.320Z,73.46
2018-06-18T07:02:12.205Z,72.78
2018-06-18T07:03:12.127Z,72.43
2018-06-18T07:04:12.048Z,71.85
2018-06-18T07:05:11.977Z,70.79
2018-06-18T07:06:11.896Z,70.89
2018-06-18T07:07:11.827Z,71.37
2018-06-18T07:08:11.748Z,71.28
2018-06-18T07:09:11.672Z,70.50
2018-06-18T07:10:11.598Z,69.87
2018-06-18T07:11:11.531Z,68.42
2018-06-18T07:12:11.447Z,68.32
2018-06-18T07:13:11.373Z,68.52
2018-06-18T07:14:11.298Z,67.58
2018-06-18T07:15:11.225Z,67.40
2018-06-18T07:16:11.149Z,65.08
2018-06-18T07:17:11.074Z,66.14
2018-06-18T07:18:10.998Z,66.43
2018-06-18T07:19:10.924Z,67.88
2018-06-18T07:20:10.849Z,66.82
2018-06-18T07:21:10.773Z,66.04
2018-06-18T07:22:10.698Z,66.52
2018-06-18T07:23:10.624Z,66.24
2018-06-18T07:24:10.549Z,64.98
2018-06-18T07:25:10.475Z,64.31
2018-06-18T07:26:10.448Z,62.86
2018-06-18T07:27:10.325Z,64.02
2018-06-18T07:28:10.249Z,65.75
2018-06-18T07:29:10.175Z,66.59
2018-06-18T07:30:10.188Z,67.26
2018-06-18T07:31:10.028Z,68.23
2018-06-18T07:32:09.953Z,68.23
2018-06-18T07:33:09.875Z,69.09
2018-06-18T07:34:09.799Z,68.99
2018-06-18T07:35:09.729Z,69.38
2018-06-18T07:36:09.650Z,69.35
2018-06-18T07:37:09.576Z,68.48
2018-06-18T07:38:09.501Z,69.06
2018-06-18T07:39:09.426Z,70.21
2018-06-18T07:40:09.352Z,69.83
2018-06-18T07:41:09.277Z,70.89
2018-06-18T07:42:09.208Z,70.70
2018-06-18T07:43:09.126Z,70.56
2018-06-18T07:44:09.052Z,71.24
2018-06-18T07:45:08.977Z,71.04
2018-06-18T07:46:08.904Z,72.68
2018-06-18T07:47:08.828Z,71.81
2018-06-18T07:48:08.753Z,72.30
2018-06-18T07:49:08.678Z,72.17
2018-06-18T07:50:08.603Z,72.59
2018-06-18T07:51:08.527Z,72.68
2018-06-18T07:52:08.452Z,72.59
2018-06-18T07:53:08.377Z,73.07
2018-06-18T07:54:08.303Z,72.11
2018-06-18T07:55:08.235Z,71.85
2018-06-18T07:56:08.153Z,72.05
2018-06-18T07:57:08.079Z,72.63
2018-06-18T07:58:08.006Z,72.63
2018-06-18T07:59:07.931Z,72.05
2018-06-18T08:00:07.853Z,71.85
2018-06-18T08:01:07.783Z,71.95
2018-06-18T08:02:07.707Z,71.56
2018-06-18T08:03:07.629Z,72.05
2018-06-18T08:04:07.556Z,72.81
2018-06-18T08:05:07.480Z,71.28
2018-06-18T08:06:07.405Z,71.31
2018-06-18T08:07:07.330Z,70.60
2018-06-18T08:08:07.243Z,70.44
2018-06-18T08:09:07.167Z,70.83
2018-06-18T08:10:07.113Z,69.87
2018-06-18T08:11:07.018Z,69.87
2018-06-18T08:12:06.943Z,69.57
2018-06-18T08:13:06.879Z,70.21
2018-06-18T08:14:06.806Z,70.35
2018-06-18T08:15:06.717Z,71.22
2018-06-18T08:16:06.642Z,70.64
2018-06-18T08:17:06.568Z,69.90
2018-06-18T08:18:06.508Z,68.84
2018-06-18T08:19:06.465Z,68.45
2018-06-18T08:20:06.342Z,68.84
2018-06-18T08:21:06.267Z,67.23
2018-06-18T08:22:06.205Z,66.27
2018-06-18T08:23:06.118Z,65.01
2018-06-18T08:24:06.043Z,66.01
2018-06-18T08:25:05.968Z,66.17
2018-06-18T08:26:05.906Z,67.33
2018-06-18T08:27:05.821Z,67.81
2018-06-18T08:28:05.745Z,67.30
2018-06-18T08:29:05.681Z,67.23
2018-06-18T08:30:05.607Z,67.62
2018-06-18T08:31:05.533Z,67.33
2018-06-18T08:32:05.457Z,67.14
2018-06-18T08:33:05.385Z,67.43
2018-06-18T08:34:05.307Z,66.01
2018-06-18T08:35:05.236Z,66.11
2018-06-18T08:36:05.159Z,65.27
2018-06-18T08:37:05.083Z,64.95
2018-06-18T08:38:05.008Z,65.17
2018-06-18T08:39:04.933Z,64.69
2018-06-18T08:40:04.862Z,63.28
2018-06-18T08:41:04.795Z,64.21
2018-06-18T08:42:04.720Z,64.14
2018-06-18T08:43:04.645Z,64.05
2018-06-18T08:44:04.570Z,63.08
2018-06-18T08:45:04.495Z,64.01
2018-06-18T08:46:04.420Z,64.11
2018-06-18T08:47:04.358Z,64.11
2018-06-18T08:48:04.285Z,64.31
2018-06-18T08:49:04.212Z,64.31
2018-06-18T08:50:04.134Z,63.73
2018-06-18T08:51:04.059Z,64.47
2018-06-18T08:52:03.984Z,62.63
2018-06-18T08:53:03.921Z,63.63
2018-06-18T08:54:03.850Z,63.05
2018-06-18T08:55:03.771Z,62.95
2018-06-18T08:56:03.705Z,62.18
2018-06-18T08:57:03.621Z,61.83
2018-06-18T08:58:03.560Z,62.31
2018-06-18T08:59:03.490Z,62.60
2018-06-18T09:00:03.410Z,62.37
2018-06-18T09:01:03.337Z,62.95
2018-06-18T09:02:03.260Z,64.01
2018-06-18T09:03:03.197Z,63.43
2018-06-18T09:04:03.122Z,62.76
2018-06-18T09:05:03.048Z,63.05
2018-06-18T09:06:02.986Z,62.47
2018-06-18T09:07:02.899Z,63.05
2018-06-18T09:08:02.836Z,62.76
2018-06-18T09:09:02.760Z,62.95
2018-06-18T09:10:02.745Z,63.15
2018-06-18T09:11:02.611Z,62.37
2018-06-18T09:12:02.548Z,61.83
2018-06-18T09:13:02.476Z,62.60
2018-06-18T09:14:02.400Z,61.34
2018-06-18T09:15:02.323Z,60.96
2018-06-18T09:16:02.306Z,61.73
2018-06-18T09:17:02.188Z,61.25
2018-06-18T09:18:02.117Z,61.44
2018-06-18T09:19:02.037Z,60.67
2018-06-18T09:20:01.974Z,60.50
2018-06-18T09:21:01.912Z,60.41
2018-06-18T09:22:01.824Z,60.57
2018-06-18T09:23:01.749Z,60.69
2018-06-18T09:24:01.687Z,60.50
2018-06-18T09:25:01.613Z,59.73
2018-06-18T09:26:01.542Z,59.25
2018-06-18T09:27:01.463Z,58.98
2018-06-18T09:28:01.402Z,59.66
2018-06-18T09:29:01.324Z,59.15
2018-06-18T09:30:01.262Z,58.50
2018-06-18T09:31:01.197Z,57.73
2018-06-18T09:32:01.139Z,57.92
2018-06-18T09:33:01.039Z,58.37
2018-06-18T09:34:00.976Z,58.37
2018-06-18T09:35:00.900Z,58.28
2018-06-18T09:36:00.825Z,59.15
2018-06-18T09:37:00.764Z,59.05
2018-06-18T09:38:00.691Z,58.18
2018-06-18T09:39:00.621Z,58.35
2018-06-18T09:40:00.554Z,59.63
2018-06-18T09:41:00.476Z,59.66
2018-06-18T09:42:00.403Z,59.01
2018-06-18T09:43:00.339Z,58.34
2018-06-18T09:44:00.265Z,56.98
2018-06-18T09:45:00.191Z,55.15
2018-06-18T09:46:00.127Z,55.24
2018-06-18T09:47:00.054Z,53.89
2018-06-18T09:48:00.034Z,55.43
2018-06-18T09:48:59.915Z,55.36
2018-06-18T09:49:59.842Z,53.81
2018-06-18T09:50:59.766Z,53.17
2018-06-18T09:51:59.703Z,52.80
2018-06-18T09:52:59.629Z,51.54
2018-06-18T09:53:59.565Z,52.00
2018-06-18T09:54:59.499Z,52.85
2018-06-18T09:55:59.419Z,52.75
2018-06-18T09:56:59.354Z,52.10
2018-06-18T09:57:59.277Z,52.82
2018-06-18T09:58:59.218Z,53.31
2018-06-18T09:59:59.141Z,53.59
2018-06-18T10:00:59.080Z,53.69
2018-06-18T10:01:59.004Z,52.92
2018-06-18T10:02:58.929Z,53.59
2018-06-18T10:03:58.867Z,52.95
2018-06-18T10:04:58.792Z,52.87
2018-06-18T10:05:58.728Z,52.58
2018-06-18T10:06:58.654Z,52.97
2018-06-18T10:07:58.593Z,51.84
2018-06-18T10:08:58.519Z,52.03
2018-06-18T10:09:58.454Z,52.97
2018-06-18T10:10:58.395Z,51.81
2018-06-18T10:11:58.306Z,51.52
2018-06-18T10:12:58.243Z,50.84
2018-06-18T10:13:58.168Z,50.77
2018-06-18T10:14:58.104Z,50.09
2018-06-18T10:15:58.030Z,50.19
2018-06-18T10:16:57.968Z,50.94
2018-06-18T10:17:57.893Z,52.17
2018-06-18T10:18:57.831Z,52.78
2018-06-18T10:19:57.758Z,52.97
2018-06-18T10:20:57.693Z,52.68
2018-06-18T10:21:57.618Z,51.88
2018-06-18T10:22:57.557Z,52.73
2018-06-18T10:23:57.483Z,52.85
2018-06-18T10:24:57.406Z,52.75
2018-06-18T10:25:57.345Z,52.49
2018-06-18T10:26:57.269Z,52.10
2018-06-18T10:27:57.206Z,50.94
2018-06-18T10:28:57.131Z,52.29
2018-06-18T10:29:57.056Z,51.88
2018-06-18T10:30:56.997Z,51.95
2018-06-18T10:31:56.920Z,53.33
2018-06-18T10:32:56.856Z,53.59
2018-06-18T10:33:56.782Z,53.59
2018-06-18T10:34:56.711Z,53.79
2018-06-18T10:35:56.645Z,53.53
2018-06-18T10:36:56.570Z,53.81
2018-06-18T10:37:56.495Z,53.04
2018-06-18T10:38:56.432Z,52.85
2018-06-18T10:39:56.360Z,52.97
2018-06-18T10:40:56.282Z,53.09
2018-06-18T10:41:56.221Z,51.54
2018-06-18T10:42:56.146Z,51.54
2018-06-18T10:43:56.071Z,51.09
2018-06-18T10:44:56.008Z,50.02
2018-06-18T10:45:55.939Z,49.75
2018-06-18T10:46:55.871Z,49.68
2018-06-18T10:47:55.799Z,48.37
2018-06-18T10:48:55.745Z,46.58
2018-06-18T10:49:55.664Z,46.60
2018-06-18T10:50:55.597Z,46.35
2018-06-18T10:51:55.533Z,46.65
2018-06-18T10:52:55.461Z,48.27
2018-06-18T10:53:55.383Z,50.02
2018-06-18T10:54:55.324Z,50.50
2018-06-18T10:55:55.247Z,50.07
2018-06-18T10:56:55.212Z,51.47
2018-06-18T10:57:55.124Z,53.09
2018-06-18T10:58:55.048Z,54.03
2018-06-18T10:59:54.984Z,54.32
2018-06-18T11:00:54.923Z,53.86
2018-06-18T11:01:54.854Z,54.71
2018-06-18T11:02:54.773Z,55.09
2018-06-18T11:03:54.713Z,54.41
2018-06-18T11:04:54.635Z,53.86
2018-06-18T11:05:54.573Z,53.86
2018-06-18T11:06:54.498Z,53.35
2018-06-18T11:07:54.424Z,54.32
2018-06-18T11:08:54.371Z,54.03
2018-06-18T11:09:54.288Z,54.03
2018-06-18T11:10:54.223Z,54.35
2018-06-18T11:11:54.148Z,53.77
2018-06-18T11:12:54.074Z,53.69
2018-06-18T11:13:54.011Z,53.31
2018-06-18T11:14:53.949Z,53.02
2018-06-18T11:15:53.892Z,52.63
2018-06-18T11:16:53.904Z,53.59
2018-06-18T11:17:53.725Z,53.59
2018-06-18T11:18:53.650Z,54.17
2018-06-18T11:19:53.575Z,53.96
2018-06-18T11:20:53.514Z,53.67
2018-06-18T11:21:53.480Z,53.77
2018-06-18T11:22:53.416Z,53.38
2018-06-18T11:23:53.300Z,52.77
2018-06-18T11:24:53.226Z,52.87
2018-06-18T11:25:53.151Z,53.19
2018-06-18T11:26:53.184Z,53.16
2018-06-18T11:27:53.014Z,52.48
2018-06-18T11:28:52.937Z,52.80
2018-06-18T11:29:52.862Z,52.92
2018-06-18T11:30:52.803Z,51.37
2018-06-18T11:31:52.737Z,50.82
2018-06-18T11:32:52.697Z,50.65
2018-06-18T11:33:52.576Z,49.05
2018-06-18T11:34:52.552Z,48.66
2018-06-18T11:35:52.438Z,48.27
2018-06-18T11:36:52.423Z,48.35
2018-06-18T11:37:52.303Z,48.44
2018-06-18T11:38:52.235Z,47.98
2018-06-18T11:39:52.157Z,48.97
2018-06-18T11:40:52.090Z,48.10
2018-06-18T11:41:52.045Z,46.41
2018-06-18T11:42:51.941Z,48.22
2018-06-18T11:43:51.879Z,49.00
2018-06-18T11:44:51.803Z,49.39
2018-06-18T11:45:51.755Z,48.90
2018-06-18T11:46:51.665Z,48.54
2018-06-18T11:47:51.607Z,47.08
2018-06-18T11:48:51.529Z,46.18
2018-06-18T11:49:51.454Z,42.90
2018-06-18T11:50:51.390Z,41.96
2018-06-18T11:51:51.316Z,42.20
2018-06-18T11:52:51.256Z,41.11
2018-06-18T11:53:51.178Z,40.64
2018-06-18T11:54:51.117Z,39.80
2018-06-18T11:55:51.101Z,38.82
2018-06-18T11:56:50.979Z,38.12
2018-06-18T11:57:50.916Z,39.18
2018-06-18T11:58:50.856Z,39.92
2018-06-18T11:59:50.779Z,40.39
2018-06-18T12:00:50.730Z,40.85
2018-06-18T12:01:50.708Z,41.13
2018-06-18T12:02:50.581Z,41.34
2018-06-18T12:03:50.572Z,42.10
2018-06-18T12:04:50.455Z,44.58
2018-06-18T12:05:50.392Z,44.56
2018-06-18T12:06:50.318Z,45.14
2018-06-18T12:07:50.255Z,45.02
2018-06-18T12:08:50.192Z,44.31
2018-06-18T12:09:50.158Z,45.53
2018-06-18T12:10:50.057Z,46.77
2018-06-18T12:11:50.011Z,45.21
2018-06-18T12:12:49.931Z,42.50
2018-06-18T12:13:49.869Z,40.62
2018-06-18T12:14:49.806Z,38.12
2018-06-18T12:15:49.732Z,38.30
2018-06-18T12:16:49.681Z,39.18
2018-06-18T12:17:49.595Z,39.88
2018-06-18T12:18:49.533Z,38.28
2018-06-18T12:19:49.469Z,40.37
2018-06-18T12:20:49.395Z,41.42
2018-06-18T12:21:49.333Z,43.27
2018-06-18T12:22:49.272Z,43.68
2018-06-18T12:23:49.207Z,43.40
2018-06-18T12:24:49.135Z,43.66
2018-06-18T12:25:49.070Z,44.44
2018-06-18T12:26:49.008Z,44.54
2018-06-18T12:27:48.933Z,44.44
2018-06-18T12:28:48.869Z,44.64
2018-06-18T12:29:48.807Z,45.10
2018-06-18T12:30:48.734Z,45.17
2018-06-18T12:31:48.670Z,45.47
2018-06-18T12:32:48.597Z,45.37
2018-06-18T12:33:48.534Z,46.33
2018-06-18T12:34:48.470Z,46.02
2018-06-18T12:35:48.396Z,46.80
2018-06-18T12:36:48.334Z,45.92
2018-06-18T12:37:48.260Z,46.00
2018-06-18T12:38:48.196Z,46.58
2018-06-18T12:39:48.121Z,45.81
2018-06-18T12:40:48.060Z,46.36
2018-06-18T12:41:47.986Z,46.75
2018-06-18T12:42:47.925Z,47.91
2018-06-18T12:43:47.847Z,47.52
2018-06-18T12:44:47.785Z,46.84
2018-06-18T12:45:47.710Z,47.14
2018-06-18T12:46:47.684Z,47.62
2018-06-18T12:47:47.610Z,47.91
2018-06-18T12:48:47.497Z,47.84
2018-06-18T12:49:47.436Z,46.87
2018-06-18T12:50:47.361Z,46.77
2018-06-18T12:51:47.285Z,47.16